Leigh, Nebraska
Current Conditions -  °F | °C
As of 5:56 AM on Friday 31 Oct 2014 (Local Time) from KOFK Reporting Station
Clear Clear  
Wind Chill: 17°   Ceiling: Unl
Heat Index: 26°   Visibility: 10mi
Dew Point: 18°   Wind: 9mph
Humidity: 71%   Direction: 350°N
Pressure: 30.54"   Gusts: NA
Location:  41.71°N, 97.24°W
Report Text: KOFK 311056Z AUTO 35008KT 10SM CLR M03/M08 A3054 RMK AO2 SLP359 T10331078
Loading
Personal Weather Stations






























Interactive Weather Map
Tropical Storm Tracking
New forecast layout! Learn more

10-Day Weather Forecast

Advertisements
Track Severe Weather on mobile